Time;durP1;ratioP1;P1;durP2;ratioP2;P2;SDS_P1;SDS_P2;PMS_P1;PMS_P2;Temp;Humidity;BMP_temperature;BMP_pressure;BME280_temperature;BME280_humidity;BME280_pressure;Samples;Min_cycle;Max_cycle;Signal;HPM_P1;HPM_P2
2024/01/01 00:01:11;;;;;;;10.40;3.30;;;8.10;99.90;;;7.58;100.00;100575.94;4184677;28;20516;-72
2024/01/01 00:03:12;;;;;;;18.65;3.35;;;8.20;99.90;;;7.54;100.00;100564.03;4172137;28;20649;-72
2024/01/01 00:05:13;;;;;;;12.88;2.17;;;8.20;99.90;;;7.46;100.00;100556.88;4186195;28;20051;-72
2024/01/01 00:07:14;;;;;;;11.30;1.88;;;8.20;99.90;;;7.44;100.00;100558.81;4176313;28;20032;-72
2024/01/01 00:09:14;;;;;;;10.05;2.40;;;8.10;99.90;;;7.45;100.00;100565.72;4169345;28;20029;-72
2024/01/01 00:11:15;;;;;;;6.18;1.48;;;8.10;99.90;;;7.45;100.00;100568.34;4169280;28;20052;-72
2024/01/01 00:13:16;;;;;;;10.57;2.10;;;8.10;99.90;;;7.41;100.00;100564.34;4169453;28;20040;-72
2024/01/01 00:15:17;;;;;;;6.20;1.25;;;8.10;99.90;;;7.29;100.00;100570.69;4169366;28;20563;-72
2024/01/01 00:17:18;;;;;;;4.80;1.33;;;8.00;99.90;;;7.17;100.00;100566.56;4180259;28;20071;-72
2024/01/01 00:19:19;;;;;;;13.95;1.70;;;7.90;99.90;;;7.07;100.00;100571.81;4170114;28;20026;-72
2024/01/01 00:21:20;;;;;;;6.18;1.20;;;7.80;99.90;;;7.01;100.00;100571.53;4167977;28;20057;-72
2024/01/01 00:23:21;;;;;;;6.88;1.98;;;7.70;99.90;;;6.99;100.00;100570.88;4184432;28;20526;-72
2024/01/01 00:25:22;;;;;;;11.38;1.60;;;7.70;99.90;;;6.90;100.00;100569.06;4169207;28;20400;-72
2024/01/01 00:27:22;;;;;;;7.82;1.65;;;7.60;99.90;;;6.85;100.00;100572.06;4178680;28;20507;-72
2024/01/01 00:29:26;;;;;;;12.23;2.90;;;7.60;99.90;;;6.79;100.00;100574.41;4170656;28;20033;-72
2024/01/01 00:31:27;;;;;;;13.02;1.50;;;7.50;99.90;;;6.69;100.00;100571.75;4177029;28;20485;-72
2024/01/01 00:33:28;;;;;;;7.78;2.22;;;7.40;99.90;;;6.65;100.00;100565.97;4169088;28;20037;-72
2024/01/01 00:35:29;;;;;;;6.07;1.70;;;7.30;99.90;;;6.64;100.00;100569.56;4183843;28;20055;-72
2024/01/01 00:37:30;;;;;;;13.18;2.00;;;7.30;99.90;;;6.61;100.00;100563.75;4176116;28;20026;-72
2024/01/01 00:39:30;;;;;;;11.00;2.05;;;7.30;99.90;;;6.61;100.00;100574.22;4169081;28;20034;-72
2024/01/01 00:41:32;;;;;;;7.22;1.70;;;7.30;99.90;;;6.58;100.00;100575.34;4169173;28;20080;-72
2024/01/01 00:43:33;;;;;;;5.63;1.63;;;7.20;99.90;;;6.53;100.00;100580.16;4184297;28;20108;-72
2024/01/01 00:45:34;;;;;;;7.45;1.50;;;7.20;99.90;;;6.51;100.00;100570.78;4169585;28;20025;-72
2024/01/01 00:47:35;;;;;;;7.03;1.17;;;7.20;99.90;;;6.51;100.00;100568.97;4173304;28;20117;-72
2024/01/01 00:49:36;;;;;;;6.13;1.30;;;7.20;99.90;;;6.56;100.00;100577.28;4176857;28;20025;-73
2024/01/01 00:51:37;;;;;;;8.02;1.48;;;7.20;99.90;;;6.56;100.00;100581.69;4171235;28;20029;-72
2024/01/01 00:53:38;;;;;;;6.68;1.50;;;7.20;99.90;;;6.54;100.00;100568.69;4167639;28;20029;-72
2024/01/01 00:55:39;;;;;;;4.88;1.30;;;7.20;99.90;;;6.56;100.00;100574.66;4167740;28;20219;-73
2024/01/01 00:57:40;;;;;;;6.60;1.33;;;7.20;99.90;;;6.62;100.00;100563.63;4170216;28;20029;-72
2024/01/01 00:59:41;;;;;;;5.75;1.60;;;7.30;99.90;;;6.65;100.00;100568.59;4167402;28;20104;-72
2024/01/01 01:01:41;;;;;;;4.45;1.40;;;7.30;99.90;;;6.61;100.00;100569.81;4168871;28;20036;-72
2024/01/01 01:03:42;;;;;;;6.13;1.27;;;7.30;99.90;;;6.54;100.00;100570.50;4175600;28;20028;-72
2024/01/01 01:05:43;;;;;;;7.00;1.10;;;7.30;99.90;;;6.51;100.00;100568.97;4200255;28;20028;-73
2024/01/01 01:07:44;;;;;;;8.93;1.52;;;7.20;99.90;;;6.46;100.00;100563.31;4184149;28;20037;-72
2024/01/01 01:09:45;;;;;;;6.15;1.27;;;7.20;99.90;;;6.48;100.00;100573.66;4200346;28;20055;-72
2024/01/01 01:11:45;;;;;;;12.63;1.50;;;7.10;99.90;;;6.44;100.00;100562.63;4185258;28;20036;-72
2024/01/01 01:13:48;;;;;;;10.43;1.75;;;7.20;99.90;;;6.44;100.00;100567.88;4200420;28;20443;-72
2024/01/01 01:15:49;;;;;;;8.85;1.65;;;7.10;99.90;;;6.42;100.00;100569.75;4183995;28;20021;-72
2024/01/01 01:17:50;;;;;;;9.05;2.15;;;7.10;99.90;;;6.41;100.00;100568.13;4182130;28;20056;-72
2024/01/01 01:19:51;;;;;;;5.13;1.20;;;7.10;99.90;;;6.37;100.00;100576.38;4168695;28;20018;-72
2024/01/01 01:21:52;;;;;;;12.00;2.10;;;7.10;99.90;;;6.37;100.00;100589.47;4168440;28;20048;-72
2024/01/01 01:23:54;;;;;;;9.35;1.75;;;7.10;99.90;;;6.36;100.00;100580.78;4168580;28;20022;-73
2024/01/01 01:25:55;;;;;;;6.72;1.65;;;7.00;99.90;;;6.35;100.00;100567.81;4168648;28;20424;-72
2024/01/01 01:27:56;;;;;;;9.07;1.55;;;7.00;99.90;;;6.30;100.00;100565.59;4177573;28;20021;-72
2024/01/01 01:29:56;;;;;;;10.35;2.30;;;7.00;99.90;;;6.31;100.00;100567.25;4174487;28;20056;-72
2024/01/01 01:31:57;;;;;;;9.88;2.78;;;7.00;99.90;;;6.31;100.00;100572.50;4183747;28;20029;-72
2024/01/01 01:33:58;;;;;;;9.75;2.28;;;7.00;99.90;;;6.31;100.00;100577.72;4184830;28;20025;-72
2024/01/01 01:36:00;;;;;;;13.73;1.77;;;7.00;99.90;;;6.37;100.00;100576.38;4184759;28;20389;-72
2024/01/01 01:38:01;;;;;;;10.25;2.15;;;7.00;99.90;;;6.36;100.00;100574.75;4175781;28;20036;-72
2024/01/01 01:40:03;;;;;;;8.77;1.95;;;7.00;99.90;;;6.36;100.00;100574.75;4167245;28;20021;-72
2024/01/01 01:42:04;;;;;;;13.07;2.13;;;7.00;99.90;;;6.42;100.00;100582.88;4167250;28;20030;-72
2024/01/01 01:44:05;;;;;;;9.90;2.92;;;7.00;99.90;;;6.45;100.00;100574.75;4167872;28;20377;-72
2024/01/01 01:46:07;;;;;;;8.48;2.63;;;7.00;99.90;;;6.50;100.00;100577.81;4168617;28;20092;-72
2024/01/01 01:48:08;;;;;;;11.30;1.90;;;7.10;99.90;;;6.48;100.00;100578.91;4171355;28;20052;-73
2024/01/01 01:50:09;;;;;;;7.07;2.08;;;7.20;99.90;;;6.43;100.00;100576.69;4166991;28;20026;-72
2024/01/01 01:52:10;;;;;;;9.23;2.70;;;7.10;99.90;;;6.40;100.00;100586.59;4185203;28;20063;-73
2024/01/01 01:54:11;;;;;;;12.05;3.45;;;7.10;99.90;;;6.41;100.00;100580.41;4168235;28;20030;-73
2024/01/01 01:56:14;;;;;;;9.57;2.55;;;7.10;99.90;;;6.45;100.00;100584.41;4167358;28;20369;-72
2024/01/01 01:58:15;;;;;;;8.73;2.22;;;7.10;99.90;;;6.43;100.00;100587.16;4169515;28;20021;-72
2024/01/01 02:00:16;;;;;;;15.20;3.22;;;7.10;99.90;;;6.42;100.00;100593.34;4199894;28;20061;-72
2024/01/01 02:02:19;;;;;;;15.15;2.10;;;7.10;99.90;;;6.41;100.00;100585.63;4176668;28;20044;-72
2024/01/01 02:04:20;;;;;;;11.25;2.13;;;7.10;99.90;;;6.47;100.00;100599.03;4180358;28;20029;-72
2024/01/01 02:06:21;;;;;;;8.95;2.15;;;7.10;99.90;;;6.43;100.00;100589.78;4199612;28;20025;-72
2024/01/01 02:08:22;;;;;;;6.65;1.83;;;7.10;99.90;;;6.47;100.00;100604.28;4178531;28;20036;-72
2024/01/01 02:10:23;;;;;;;10.10;2.17;;;7.10;99.90;;;6.51;100.00;100618.75;4166730;28;20056;-72
2024/01/01 02:12:24;;;;;;;11.05;1.90;;;7.20;99.90;;;6.56;100.00;100613.97;4168148;28;20025;-72
2024/01/01 02:14:25;;;;;;;15.32;2.47;;;7.20;99.90;;;6.57;100.00;100610.34;4168101;28;20029;-72
2024/01/01 02:16:26;;;;;;;15.35;1.85;;;7.20;99.90;;;6.66;100.00;100620.03;4168830;28;20017;-72
2024/01/01 02:18:27;;;;;;;11.68;2.40;;;7.30;99.90;;;6.76;100.00;100619.25;4178565;28;20018;-72
2024/01/01 02:20:27;;;;;;;11.57;1.92;;;7.30;99.90;;;6.79;100.00;100616.34;4171096;28;20022;-72
2024/01/01 02:22:39;;;;;;;14.13;2.65;;;7.40;99.90;;;6.79;100.00;100621.59;4169800;28;20041;-72
2024/01/01 02:24:40;;;;;;;10.02;1.60;;;7.40;99.90;;;6.77;100.00;100631.38;4171276;28;20040;-72
2024/01/01 02:26:43;;;;;;;8.93;1.60;;;7.40;99.90;;;6.77;100.00;100637.47;4173940;28;20021;-72
2024/01/01 02:28:44;;;;;;;13.48;1.63;;;7.40;99.90;;;6.73;100.00;100635.22;4178463;28;20025;-73
2024/01/01 02:30:44;;;;;;;7.97;2.05;;;7.40;99.90;;;6.75;100.00;100633.31;4180719;28;20048;-72
2024/01/01 02:32:45;;;;;;;9.95;1.48;;;7.40;99.90;;;6.75;100.00;100633.31;4170806;28;20029;-72
2024/01/01 02:34:48;;;;;;;11.57;2.28;;;7.40;99.90;;;6.72;100.00;100633.59;4171036;28;20079;-72
2024/01/01 02:36:49;;;;;;;8.32;1.77;;;7.40;99.90;;;6.69;100.00;100638.13;4179127;28;20439;-72
2024/01/01 02:38:50;;;;;;;9.85;1.73;;;7.40;99.90;;;6.71;100.00;100638.00;4170983;28;20087;-72
2024/01/01 02:40:51;;;;;;;15.23;2.70;;;7.40;99.90;;;6.72;100.00;100644.06;4170965;28;20033;-72
2024/01/01 02:42:51;;;;;;;16.52;2.40;;;7.40;99.90;;;6.78;100.00;100646.97;4169616;28;20508;-72
2024/01/01 02:44:52;;;;;;;9.45;2.08;;;7.40;99.90;;;6.80;100.00;100646.84;4173098;28;20488;-72
2024/01/01 02:46:54;;;;;;;7.53;1.88;;;7.50;99.90;;;6.83;100.00;100652.66;4173641;28;20051;-73
2024/01/01 02:48:54;;;;;;;11.73;2.20;;;7.50;99.90;;;6.88;100.00;100647.84;4169653;28;20033;-72
2024/01/01 02:50:56;;;;;;;8.27;1.90;;;7.60;99.90;;;6.94;100.00;100659.56;4170425;28;20025;-72
2024/01/01 02:52:57;;;;;;;18.02;2.25;;;7.60;99.90;;;6.99;100.00;100649.53;4170824;28;20045;-72
2024/01/01 02:54:58;;;;;;;9.35;1.85;;;7.60;99.90;;;7.05;100.00;100641.09;4179002;28;20037;-72
2024/01/01 02:56:58;;;;;;;6.35;2.13;;;7.70;99.90;;;7.07;100.00;100645.25;4186617;28;20021;-72
2024/01/01 02:58:59;;;;;;;12.57;3.08;;;7.70;99.90;;;7.10;100.00;100631.03;4170809;28;20026;-72
2024/01/01 03:01:00;;;;;;;7.43;1.70;;;7.70;99.90;;;7.14;100.00;100635.88;4169379;28;20036;-72
2024/01/01 03:03:03;;;;;;;5.47;1.83;;;7.80;99.90;;;7.16;100.00;100647.06;4171564;28;20037;-72
2024/01/01 03:05:06;;;;;;;10.35;1.80;;;7.80;99.90;;;7.23;100.00;100642.91;4202393;28;20071;-72
2024/01/01 03:07:07;;;;;;;8.45;1.58;;;7.90;99.90;;;7.30;100.00;100640.56;4186700;28;20029;-72
2024/01/01 03:09:08;;;;;;;9.95;1.70;;;7.90;99.90;;;7.34;100.00;100643.75;4185717;28;20124;-72
2024/01/01 03:11:09;;;;;;;20.85;3.00;;;7.90;99.90;;;7.34;100.00;100636.72;4186312;28;20045;-72
2024/01/01 03:13:10;;;;;;;14.57;2.88;;;8.00;99.90;;;7.34;100.00;100641.97;4186859;28;20401;-72
2024/01/01 03:15:11;;;;;;;8.05;2.35;;;8.00;99.90;;;7.33;100.00;100636.84;4186828;28;20404;-72
2024/01/01 03:17:11;;;;;;;5.75;1.52;;;8.00;99.90;;;7.29;100.00;100638.91;4186726;28;20021;-72
2024/01/01 03:19:12;;;;;;;14.20;2.25;;;7.90;99.90;;;7.26;100.00;100639.19;4172644;28;20021;-72
2024/01/01 03:21:13;;;;;;;9.27;1.98;;;7.90;99.90;;;7.23;100.00;100632.41;4168973;28;20026;-72
2024/01/01 03:23:14;;;;;;;7.90;1.60;;;7.90;99.90;;;7.21;100.00;100638.78;4170239;28;20040;-72
2024/01/01 03:25:15;;;;;;;19.65;3.30;;;7.90;99.90;;;7.17;100.00;100634.75;4170104;28;20029;-72
2024/01/01 03:27:16;;;;;;;10.32;2.75;;;7.80;99.90;;;7.15;100.00;100636.69;4176461;28;20131;-72
2024/01/01 03:29:16;;;;;;;15.68;2.10;;;7.80;99.90;;;7.08;100.00;100630.31;4170707;28;20071;-72
2024/01/01 03:31:17;;;;;;;8.30;2.03;;;7.80;99.90;;;7.03;100.00;100633.38;4195255;28;20033;-72
2024/01/01 03:33:18;;;;;;;7.93;2.20;;;7.70;99.90;;;7.00;100.00;100635.44;4185229;28;20528;-72
2024/01/01 03:35:19;;;;;;;8.32;2.30;;;7.70;99.90;;;6.92;100.00;100636.13;4169677;28;20393;-72
2024/01/01 03:37:20;;;;;;;10.88;2.30;;;7.60;99.90;;;6.97;100.00;100643.56;4173672;28;20021;-72
2024/01/01 03:39:21;;;;;;;11.00;2.05;;;7.60;99.90;;;6.93;100.00;100643.00;4175018;28;20032;-72
2024/01/01 03:41:24;;;;;;;8.38;2.22;;;7.60;99.90;;;6.90;100.00;100648.53;4169811;28;20025;-72
2024/01/01 03:43:25;;;;;;;11.18;2.03;;;7.60;99.90;;;6.91;100.00;100649.34;4169795;28;20029;-72
2024/01/01 03:45:26;;;;;;;12.85;1.80;;;7.50;99.90;;;6.75;100.00;100633.31;4169988;28;20030;-72
2024/01/01 03:47:28;;;;;;;7.78;2.30;;;7.50;99.90;;;6.83;100.00;100657.91;4172553;28;20029;-72
2024/01/01 03:49:28;;;;;;;13.40;2.10;;;7.50;99.90;;;6.79;100.00;100650.44;4168572;28;20029;-72
2024/01/01 03:51:29;;;;;;;13.07;2.30;;;7.50;99.90;;;6.75;100.00;100651.69;4170636;28;20478;-72
2024/01/01 03:53:30;;;;;;;11.02;2.28;;;7.40;99.90;;;6.69;100.00;100661.72;4169088;28;20476;-72
2024/01/01 03:55:31;;;;;;;8.65;2.38;;;7.40;99.90;;;6.64;100.00;100647.34;4169702;28;20032;-72
2024/01/01 03:57:33;;;;;;;9.48;2.60;;;7.40;99.90;;;6.60;100.00;100641.53;4170454;28;20469;-72
2024/01/01 03:59:33;;;;;;;14.85;2.10;;;7.30;99.90;;;6.53;100.00;100650.91;4169710;28;20049;-72
2024/01/01 04:01:35;;;;;;;11.40;2.10;;;7.30;99.90;;;6.48;100.00;100649.66;4169398;28;20092;-72
2024/01/01 04:03:36;;;;;;;13.38;2.38;;;7.20;99.90;;;6.44;100.00;100641.22;4175397;28;20020;-72
2024/01/01 04:05:37;;;;;;;14.68;2.65;;;7.20;99.90;;;6.41;100.00;100646.72;4176382;28;20511;-72
2024/01/01 04:07:38;;;;;;;9.20;2.50;;;7.10;99.90;;;6.40;100.00;100642.44;4179387;28;20040;-72
2024/01/01 04:09:39;;;;;;;9.55;1.85;;;7.10;99.90;;;6.40;100.00;100639.81;4169872;28;20416;-72
2024/01/01 04:11:40;;;;;;;13.73;2.20;;;7.10;99.90;;;6.41;100.00;100644.09;4169435;28;20030;-72
2024/01/01 04:13:42;;;;;;;10.75;1.92;;;7.10;99.90;;;6.42;100.00;100640.50;4169289;28;20017;-72
2024/01/01 04:15:42;;;;;;;8.07;1.58;;;7.10;99.90;;;6.45;100.00;100642.06;4169267;28;20074;-72
2024/01/01 04:17:43;;;;;;;15.15;2.40;;;7.10;99.90;;;6.42;100.00;100643.13;4177048;28;20024;-73
2024/01/01 04:19:47;;;;;;;10.82;2.03;;;7.10;99.90;;;6.43;100.00;100644.78;4169383;28;20037;-72
2024/01/01 04:21:48;;;;;;;8.05;2.10;;;7.10;99.90;;;6.43;100.00;100643.97;4169187;28;20032;-72
2024/01/01 04:23:49;;;;;;;10.30;1.95;;;7.10;99.90;;;6.43;100.00;100649.19;4169457;28;20557;-72
2024/01/01 04:25:50;;;;;;;8.27;2.17;;;7.10;99.90;;;6.40;100.00;100638.97;4169047;28;20029;-72
2024/01/01 04:27:51;;;;;;;10.43;1.80;;;7.10;99.90;;;6.39;100.00;100637.34;4174576;28;20021;-72
2024/01/01 04:29:51;;;;;;;13.80;1.98;;;7.00;99.90;;;6.34;100.00;100634.28;4190002;28;20032;-72
2024/01/01 04:31:52;;;;;;;9.30;2.25;;;7.00;99.90;;;6.29;100.00;100631.22;4180530;28;20017;-72
2024/01/01 04:33:53;;;;;;;11.40;2.20;;;7.00;99.90;;;6.24;100.00;100631.63;4185681;28;20029;-72
2024/01/01 04:35:54;;;;;;;10.25;2.00;;;7.00;99.90;;;6.23;100.00;100632.59;4184231;28;20455;-72
2024/01/01 04:37:55;;;;;;;10.40;1.85;;;6.90;99.90;;;6.18;100.00;100629.53;4179655;28;20396;-72
2024/01/01 04:39:55;;;;;;;4.85;1.70;;;6.90;99.90;;;6.17;100.00;100625.25;4167634;28;20033;-72
2024/01/01 04:41:56;;;;;;;11.63;2.35;;;6.90;99.90;;;6.16;100.00;100630.59;4183958;28;20036;-72
2024/01/01 04:43:57;;;;;;;7.78;2.28;;;6.90;99.90;;;6.17;100.00;100627.88;4167845;28;20025;-72
2024/01/01 04:45:58;;;;;;;6.82;1.50;;;6.90;99.90;;;6.17;100.00;100632.25;4169170;28;20033;-72
2024/01/01 04:47:59;;;;;;;10.48;2.50;;;6.80;99.90;;;6.13;100.00;100627.28;4168822;28;20014;-72
2024/01/01 04:50:00;;;;;;;10.52;1.80;;;6.80;99.90;;;6.13;100.00;100626.47;4168705;28;20035;-72
2024/01/01 04:52:00;;;;;;;10.45;1.73;;;6.80;99.90;;;6.13;100.00;100626.47;4170156;28;20439;-72
2024/01/01 04:54:01;;;;;;;8.38;1.95;;;6.80;99.90;;;6.11;100.00;100620.53;4168872;28;20029;-72
2024/01/01 04:56:02;;;;;;;9.55;1.83;;;6.80;99.90;;;6.14;100.00;100617.66;4170202;28;20025;-72
2024/01/01 04:58:03;;;;;;;11.65;1.88;;;6.80;99.90;;;6.10;100.00;100611.00;4183942;28;20074;-72
2024/01/01 05:00:05;;;;;;;9.68;2.85;;;6.80;99.90;;;6.19;100.00;100622.47;4184362;28;20017;-72
2024/01/01 05:02:06;;;;;;;10.52;2.13;;;6.80;99.90;;;6.19;100.00;100627.72;4200360;28;20086;-72
2024/01/01 05:04:07;;;;;;;7.10;1.80;;;6.80;99.90;;;6.17;100.00;100620.00;4185276;28;20017;-72
2024/01/01 05:06:08;;;;;;;13.02;1.75;;;6.80;99.90;;;6.16;100.00;100614.88;4184833;28;20049;-72
2024/01/01 05:08:09;;;;;;;8.02;2.53;;;6.80;99.90;;;6.16;100.00;100620.13;4180512;28;20025;-73
2024/01/01 05:10:10;;;;;;;17.10;2.50;;;6.80;99.90;;;6.15;100.00;100611.47;4167397;28;20042;-72
2024/01/01 05:12:14;;;;;;;12.63;2.58;;;6.80;99.90;;;6.15;100.00;100608.00;4168804;28;20028;-72
2024/01/01 05:14:15;;;;;;;14.80;2.50;;;6.80;99.90;;;6.15;100.00;100611.47;4168562;28;20046;-72
2024/01/01 05:16:15;;;;;;;9.30;2.22;;;6.80;99.90;;;6.20;100.00;100617.13;4183816;28;20029;-72
2024/01/01 05:18:16;;;;;;;9.98;2.08;;;6.90;99.90;;;6.24;100.00;100612.47;4181451;28;20025;-72
2024/01/01 05:20:17;;;;;;;15.82;2.63;;;6.90;99.90;;;6.29;100.00;100611.09;4183564;28;20115;-72
2024/01/01 05:22:18;;;;;;;9.65;2.35;;;6.90;99.90;;;6.29;100.00;100613.72;4200401;28;20058;-72
2024/01/01 05:24:19;;;;;;;13.93;2.08;;;7.00;99.90;;;6.30;100.00;100612.75;4200231;28;20565;-72
2024/01/01 05:26:21;;;;;;;13.32;3.13;;;7.00;99.90;;;6.33;100.00;100611.66;4183817;28;20037;-72
2024/01/01 05:28:22;;;;;;;13.93;1.65;;;7.00;99.90;;;6.32;100.00;100599.53;4175881;28;20489;-73
2024/01/01 05:30:23;;;;;;;17.48;3.20;;;7.00;99.90;;;6.43;100.00;100613.34;4178117;28;20029;-72
2024/01/01 05:32:24;;;;;;;13.02;2.47;;;7.10;99.90;;;6.50;100.00;100617.13;4169587;28;20084;-72
2024/01/01 05:34:25;;;;;;;17.98;2.25;;;7.20;99.90;;;6.60;100.00;100619.78;4168591;28;20033;-72
2024/01/01 05:36:25;;;;;;;15.38;3.13;;;7.20;99.90;;;6.64;100.00;100621.97;4183414;28;20017;-72
2024/01/01 05:38:26;;;;;;;15.65;2.40;;;7.30;99.90;;;6.67;100.00;100613.00;4171740;28;20032;-72
2024/01/01 05:40:27;;;;;;;13.10;2.38;;;7.30;99.90;;;6.71;100.00;100606.56;4167468;28;20018;-72
2024/01/01 05:42:31;;;;;;;12.98;1.35;;;7.40;99.90;;;6.83;100.00;100609.88;4168533;28;20040;-72
2024/01/01 05:44:32;;;;;;;12.90;2.20;;;7.40;99.90;;;6.86;100.00;100609.59;4168817;28;20030;-72
2024/01/01 05:46:33;;;;;;;10.95;1.85;;;7.40;99.90;;;6.86;100.00;100617.47;4167213;28;20472;-73
2024/01/01 05:48:33;;;;;;;11.68;2.30;;;7.50;99.90;;;6.78;100.00;100609.47;4169527;28;20075;-72
2024/01/01 05:50:34;;;;;;;7.97;1.75;;;7.50;99.90;;;6.75;100.00;100602.69;4183378;28;20029;-72
2024/01/01 05:52:35;;;;;;;7.78;1.38;;;7.40;99.90;;;6.73;100.00;100611.63;4171685;28;20026;-72
2024/01/01 05:54:36;;;;;;;6.50;1.10;;;7.40;99.90;;;6.69;100.00;100613.69;4171649;28;20034;-72
2024/01/01 05:56:37;;;;;;;11.57;1.33;;;7.40;99.90;;;6.66;100.00;100620.03;4171622;28;20543;-72
2024/01/01 05:58:38;;;;;;;12.82;1.63;;;7.40;99.90;;;6.66;100.00;100620.03;4203604;28;20029;-72
2024/01/01 06:00:39;;;;;;;9.00;1.23;;;7.40;99.90;;;6.71;100.00;100618.81;4180859;28;20039;-73
2024/01/01 06:02:40;;;;;;;7.57;1.73;;;7.40;99.90;;;6.73;100.00;100614.25;4175272;28;20017;-72
2024/01/01 06:04:41;;;;;;;6.97;1.20;;;7.40;99.90;;;6.82;100.00;100623.94;4187890;28;20032;-72
2024/01/01 06:06:42;;;;;;;8.18;1.00;;;7.40;99.90;;;6.84;100.00;100627.28;4187596;28;20431;-72
2024/01/01 06:08:43;;;;;;;7.60;1.38;;;7.50;99.90;;;6.83;100.00;100626.44;4178553;28;20408;-72
2024/01/01 06:10:44;;;;;;;10.30;1.80;;;7.50;99.90;;;6.84;100.00;100628.09;4170956;28;20042;-72
2024/01/01 06:12:45;;;;;;;4.05;1.27;;;7.50;99.90;;;6.87;100.00;100634.88;4170006;28;20035;-72
2024/01/01 06:14:46;;;;;;;8.90;1.45;;;7.50;99.90;;;6.87;100.00;100637.50;4171287;28;20037;-72
2024/01/01 06:16:47;;;;;;;11.30;1.58;;;7.50;99.90;;;6.89;100.00;100632.94;4172118;28;20068;-73
2024/01/01 06:18:48;;;;;;;9.00;1.65;;;7.50;99.90;;;6.89;100.00;100632.94;4186639;28;20037;-72
2024/01/01 06:20:49;;;;;;;11.82;1.70;;;7.50;99.90;;;6.90;100.00;100642.47;4202722;28;20020;-72
2024/01/01 06:22:49;;;;;;;6.97;1.33;;;7.50;99.90;;;6.85;100.00;100644.66;4202958;28;20086;-72
2024/01/01 06:24:50;;;;;;;9.32;1.55;;;7.50;99.90;;;6.75;100.00;100634.13;4187635;28;20025;-73
2024/01/01 06:26:51;;;;;;;4.60;1.05;;;7.50;99.90;;;6.72;100.00;100636.22;4187545;28;20083;-72
2024/01/01 06:28:52;;;;;;;8.43;1.10;;;7.40;99.90;;;6.67;100.00;100647.91;4174270;28;20026;-72
2024/01/01 06:30:53;;;;;;;8.50;1.75;;;7.40;99.90;;;6.66;100.00;100646.25;4181303;28;20127;-72
2024/01/01 06:32:54;;;;;;;8.55;2.03;;;7.30;99.90;;;6.66;100.00;100642.78;4171040;28;20381;-72
2024/01/01 06:34:55;;;;;;;6.15;1.60;;;7.30;99.90;;;6.69;100.00;100645.97;4170944;28;20032;-72
2024/01/01 06:36:55;;;;;;;6.40;1.70;;;7.40;99.90;;;6.73;100.00;100643.09;4172489;28;20030;-72
2024/01/01 06:38:56;;;;;;;8.55;2.50;;;7.40;99.90;;;6.73;100.00;100643.09;4170991;28;20025;-72
2024/01/01 06:40:57;;;;;;;5.40;1.40;;;7.40;99.90;;;6.74;100.00;100647.38;4170842;28;20029;-72
2024/01/01 06:42:58;;;;;;;5.57;1.27;;;7.40;99.90;;;6.71;100.00;100651.09;4170818;28;20397;-72
2024/01/01 06:45:07;;;;;;;8.15;1.70;;;7.40;99.90;;;6.66;100.00;100651.50;4170768;28;20029;-72
2024/01/01 06:47:08;;;;;;;7.80;2.47;;;7.40;99.90;;;6.56;100.00;100642.78;4176565;28;20059;-73
2024/01/01 06:49:09;;;;;;;14.02;2.55;;;7.30;99.90;;;6.62;100.00;100654.53;4180293;28;20037;-72
2024/01/01 06:51:11;;;;;;;9.65;1.42;;;7.40;99.90;;;6.61;100.00;100658.94;4170316;28;20029;-72
2024/01/01 06:53:12;;;;;;;16.20;3.92;;;7.30;99.90;;;6.65;100.00;100664.75;4177233;28;20021;-72
2024/01/01 06:55:14;;;;;;;14.98;4.32;;;7.40;99.90;;;6.69;100.00;100674.81;4170722;28;20033;-72
2024/01/01 06:57:15;;;;;;;14.02;3.05;;;7.40;99.90;;;6.78;100.00;100682.88;4173630;28;20029;-73
2024/01/01 06:59:16;;;;;;;14.95;2.63;;;7.50;99.90;;;6.90;100.00;100700.16;4176905;28;20018;-72
2024/01/01 07:01:17;;;;;;;10.57;2.10;;;7.50;99.90;;;6.99;100.00;100717.72;4169252;28;20144;-72
2024/01/01 07:03:18;;;;;;;9.07;1.55;;;7.60;99.90;;;7.00;100.00;100704.44;4173686;28;20108;-72
2024/01/01 07:05:19;;;;;;;8.38;1.73;;;7.70;99.90;;;7.12;100.00;100720.91;4202009;28;20029;-72
2024/01/01 07:07:20;;;;;;;10.68;1.33;;;7.70;99.90;;;7.18;100.00;100704.63;4202290;28;20020;-72
2024/01/01 07:09:22;;;;;;;9.90;1.30;;;7.80;99.90;;;7.19;100.00;100707.13;4173499;28;20572;-73
2024/01/01 07:11:23;;;;;;;7.95;1.50;;;7.80;99.90;;;7.19;100.00;100701.06;4175435;28;20406;-72
2024/01/01 07:13:23;;;;;;;5.65;1.10;;;7.80;99.90;;;7.15;100.00;100697.03;4185292;28;20021;-72
2024/01/01 07:15:24;;;;;;;12.43;1.42;;;7.80;99.90;;;7.24;100.00;100706.72;4176967;28;20037;-72
2024/01/01 07:17:25;;;;;;;12.70;3.10;;;7.80;99.90;;;7.24;100.00;100704.94;4181000;28;20032;-72
2024/01/01 07:19:26;;;;;;;4.70;1.20;;;7.90;99.90;;;7.29;100.00;100704.50;4180069;28;20028;-72
2024/01/01 07:21:27;;;;;;;6.57;1.13;;;7.90;99.90;;;7.23;100.00;100692.75;4178175;28;20068;-72
2024/01/01 07:23:30;;;;;;;6.78;1.95;;;8.00;99.90;;;7.31;100.00;100701.75;4180346;28;20049;-72
2024/01/01 07:25:31;;;;;;;7.82;1.25;;;8.00;99.90;;;7.37;100.00;100709.91;4184643;28;20524;-72
2024/01/01 07:27:32;;;;;;;10.30;2.38;;;8.00;99.90;;;7.36;100.00;100708.25;4172200;28;20032;-72
2024/01/01 07:29:33;;;;;;;7.05;1.63;;;8.00;99.90;;;7.36;100.00;100705.63;4173217;28;20027;-72
2024/01/01 07:31:35;;;;;;;4.55;1.73;;;8.00;99.90;;;7.37;100.00;100714.34;4185423;28;20029;-72
2024/01/01 07:33:36;;;;;;;7.95;1.33;;;8.00;99.90;;;7.35;100.00;100706.59;4186491;28;20025;-72
2024/01/01 07:35:36;;;;;;;11.65;1.73;;;8.00;99.90;;;7.33;100.00;100708.53;4186274;28;20020;-72
2024/01/01 07:37:37;;;;;;;6.82;1.40;;;8.00;99.90;;;7.22;100.00;100713.91;4180675;28;20079;-72
2024/01/01 07:39:38;;;;;;;7.72;2.60;;;7.90;99.90;;;7.07;100.00;100704.75;4170143;28;20021;-72
2024/01/01 07:41:40;;;;;;;6.65;2.80;;;7.70;99.90;;;6.91;100.00;100714.91;4185093;28;20029;-72
2024/01/01 07:43:41;;;;;;;10.25;2.92;;;7.60;99.90;;;6.73;100.00;100708.63;4169748;28;20374;-72
2024/01/01 07:45:41;;;;;;;8.95;2.53;;;7.50;99.90;;;6.61;100.00;100707.91;4168706;28;20037;-72
2024/01/01 07:47:42;;;;;;;7.85;3.15;;;7.40;99.90;;;6.54;100.00;100710.19;4192324;28;20040;-72
2024/01/01 07:49:44;;;;;;;8.98;3.45;;;7.30;99.90;;;6.43;100.00;100707.69;4174318;28;20031;-73
2024/01/01 07:51:45;;;;;;;16.75;5.05;;;7.20;99.90;;;6.38;100.00;100712.47;4169300;28;20033;-72
2024/01/01 07:53:46;;;;;;;15.32;5.43;;;7.10;99.90;;;6.29;100.00;100715.88;4169781;28;20028;-72
2024/01/01 07:55:47;;;;;;;10.52;5.93;;;7.10;99.90;;;6.29;100.00;100726.34;4169686;28;20030;-72
2024/01/01 07:57:48;;;;;;;13.05;5.05;;;7.00;99.90;;;6.23;100.00;100721.63;4177419;28;20025;-72
2024/01/01 07:59:49;;;;;;;8.30;3.92;;;6.90;99.90;;;6.19;100.00;100730.69;4169571;28;20025;-72
2024/01/01 08:01:50;;;;;;;13.07;3.85;;;6.90;99.90;;;6.23;100.00;100732.09;4169667;28;20068;-73
2024/01/01 08:03:51;;;;;;;11.60;2.50;;;6.90;99.90;;;6.22;100.00;100732.22;4177589;28;20033;-72
2024/01/01 08:05:52;;;;;;;9.40;3.30;;;6.90;99.90;;;6.26;100.00;100747.56;4185366;28;20072;-72
2024/01/01 08:07:53;;;;;;;12.32;3.17;;;6.90;99.90;;;6.28;100.00;100752.66;4178334;28;20039;-72
2024/01/01 08:09:54;;;;;;;7.18;1.88;;;6.90;99.90;;;6.26;100.00;100746.72;4169301;28;20060;-72
2024/01/01 08:11:54;;;;;;;5.30;1.83;;;6.90;99.90;;;6.30;100.00;100750.78;4168125;28;20501;-72
2024/01/01 08:13:56;;;;;;;6.13;2.00;;;6.90;99.90;;;6.30;100.00;100748.94;4169607;28;20480;-72
2024/01/01 08:15:56;;;;;;;4.40;1.52;;;6.90;99.90;;;6.32;100.00;100746.22;4168759;28;20025;-72
2024/01/01 08:17:57;;;;;;;8.77;1.80;;;7.00;99.90;;;6.38;100.00;100741.31;4173339;28;20018;-72
2024/01/01 08:19:58;;;;;;;5.85;1.15;;;7.00;99.90;;;6.48;100.00;100752.66;4184575;28;20025;-72
2024/01/01 08:21:59;;;;;;;5.15;1.15;;;7.10;99.90;;;6.60;100.00;100756.84;4169245;28;20029;-72
2024/01/01 08:24:00;;;;;;;5.55;1.10;;;7.20;99.90;;;6.75;100.00;100764.41;4169139;28;20485;-72
2024/01/01 08:26:02;;;;;;;5.32;0.75;;;7.40;99.90;;;6.87;100.00;100761.53;4168117;28;20025;-72